Time;durP1;ratioP1;P1;durP2;ratioP2;P2;SDS_P1;SDS_P2;PMS_P1;PMS_P2;Temp;Humidity;BMP_temperature;BMP_pressure;BME280_temperature;BME280_humidity;BME280_pressure;Samples;Min_cycle;Max_cycle;Signal;HPM_P1;HPM_P2
2022/12/01 00:03:36;;;;;;;131.45;119.03;;;;;;;;;;10188723;28;20049;-74
2022/12/01 00:08:33;;;;;;;130.80;118.72;;;;;;;;;;10193284;28;20053;-74
2022/12/01 00:13:29;;;;;;;128.85;116.82;;;;;;;;;;10206408;28;20048;-74
2022/12/01 00:18:25;;;;;;;127.45;115.57;;;;;;;;;;10192802;28;20045;-74
2022/12/01 00:23:22;;;;;;;126.75;114.85;;;;;;;;;;10211054;28;20041;-71
2022/12/01 00:28:18;;;;;;;127.28;115.70;;;;;;;;;;10195596;28;20046;-75
2022/12/01 00:33:14;;;;;;;125.35;113.47;;;;;;;;;;10197581;28;20058;-75
2022/12/01 00:38:11;;;;;;;128.30;116.50;;;;;;;;;;10194069;28;20048;-74
2022/12/01 00:43:07;;;;;;;123.63;112.40;;;;;;;;;;10191818;28;20048;-72
2022/12/01 00:48:03;;;;;;;122.47;111.45;;;;;;;;;;10190194;28;20153;-73
2022/12/01 00:52:59;;;;;;;123.43;111.85;;;;;;;;;;10203270;28;20425;-74
2022/12/01 00:57:56;;;;;;;124.25;111.55;;;;;;;;;;10192711;28;20519;-73
2022/12/01 01:02:52;;;;;;;121.75;110.57;;;;;;;;;;10188744;28;20549;-73
2022/12/01 01:07:48;;;;;;;122.45;110.10;;;;;;;;;;10193348;28;20133;-73
2022/12/01 01:12:44;;;;;;;120.78;109.03;;;;;;;;;;10196568;28;20084;-73
2022/12/01 01:17:41;;;;;;;124.80;112.78;;;;;;;;;;10196856;28;20056;-73
2022/12/01 01:22:37;;;;;;;122.50;110.63;;;;;;;;;;10194381;28;20038;-73
2022/12/01 01:27:33;;;;;;;118.80;107.38;;;;;;;;;;10192484;28;20049;-74
2022/12/01 01:32:30;;;;;;;120.00;108.38;;;;;;;;;;10189292;28;20042;-73
2022/12/01 01:37:26;;;;;;;115.88;104.18;;;;;;;;;;10189630;28;20476;-73
2022/12/01 01:42:22;;;;;;;115.75;104.05;;;;;;;;;;10193033;28;20045;-73
2022/12/01 01:47:22;;;;;;;113.50;102.43;;;;;;;;;;10189375;28;20347;-73
2022/12/01 01:52:20;;;;;;;114.55;102.88;;;;;;;;;;10192150;28;20046;-73
2022/12/01 01:57:19;;;;;;;114.80;103.30;;;;;;;;;;10189683;28;20053;-73
2022/12/01 02:02:16;;;;;;;114.63;103.32;;;;;;;;;;10186743;28;20052;-73
2022/12/01 02:07:15;;;;;;;107.95;97.18;;;;;;;;;;10181441;28;20045;-73
2022/12/01 02:12:11;;;;;;;111.63;100.05;;;;;;;;;;10189573;28;20046;-73
2022/12/01 02:17:30;;;;;;;111.63;100.80;;;;;;;;;;10182217;28;20045;-73
2022/12/01 02:22:45;;;;;;;112.40;101.10;;;;;;;;;;10191449;28;20043;-74
2022/12/01 02:27:57;;;;;;;112.80;100.78;;;;;;;;;;10187549;28;20245;-74
2022/12/01 02:33:02;;;;;;;112.72;101.10;;;;;;;;;;10212813;28;20057;-74
2022/12/01 02:38:10;;;;;;;123.45;102.47;;;;;;;;;;10187894;28;20053;-74
2022/12/01 02:43:24;;;;;;;110.20;98.47;;;;;;;;;;10190233;28;20543;-73
2022/12/01 02:48:28;;;;;;;107.25;95.88;;;;;;;;;;10189546;28;20045;-74
2022/12/01 02:53:24;;;;;;;109.57;97.97;;;;;;;;;;10192363;28;20050;-74
2022/12/01 02:58:21;;;;;;;110.55;94.35;;;;;;;;;;10185752;28;20601;-74
2022/12/01 03:03:26;;;;;;;106.28;94.63;;;;;;;;;;10187854;28;20050;-74
2022/12/01 03:08:32;;;;;;;107.45;92.65;;;;;;;;;;10184630;28;20124;-75
2022/12/01 03:13:31;;;;;;;109.05;94.63;;;;;;;;;;10198336;28;20042;-73
2022/12/01 03:18:33;;;;;;;106.85;95.47;;;;;;;;;;10211811;28;20053;-73
2022/12/01 03:23:32;;;;;;;109.65;96.50;;;;;;;;;;10190780;28;20046;-73
2022/12/01 03:28:31;;;;;;;120.88;96.45;;;;;;;;;;10197306;28;21546;-73
2022/12/01 03:33:37;;;;;;;105.35;89.82;;;;;;;;;;10208431;28;20141;-74
2022/12/01 03:38:35;;;;;;;108.35;88.63;;;;;;;;;;10189204;28;20125;-73
2022/12/01 03:43:33;;;;;;;103.72;87.55;;;;;;;;;;10192669;28;20466;-73
2022/12/01 03:48:29;;;;;;;112.38;92.35;;;;;;;;;;10186426;28;20133;-73
2022/12/01 03:53:28;;;;;;;118.28;93.60;;;;;;;;;;10187769;28;20042;-72
2022/12/01 03:58:29;;;;;;;112.85;88.90;;;;;;;;;;10203028;28;20136;-72
2022/12/01 04:03:25;;;;;;;110.10;81.97;;;;;;;;;;10187344;28;20037;-73
2022/12/01 04:08:22;;;;;;;109.03;87.75;;;;;;;;;;10189539;28;20136;-72
2022/12/01 04:13:22;;;;;;;107.88;84.63;;;;;;;;;;10191483;28;20065;-72
2022/12/01 04:18:19;;;;;;;113.75;85.05;;;;;;;;;;10194902;28;20104;-72
2022/12/01 04:23:58;;;;;;;108.25;85.25;;;;;;;;;;10189115;28;20050;-74
2022/12/01 04:28:31;;;;;;;107.50;84.57;;;;;;;;;;10190582;28;20050;-72
2022/12/01 04:33:28;;;;;;;109.18;81.90;;;;;;;;;;10193966;28;20073;-71
2022/12/01 04:38:24;;;;;;;115.53;84.47;;;;;;;;;;10197355;28;20260;-71
2022/12/01 04:43:25;;;;;;;102.72;81.38;;;;;;;;;;10186110;28;20178;-71
2022/12/01 04:48:22;;;;;;;102.57;84.13;;;;;;;;;;10187660;28;20064;-72
2022/12/01 04:53:18;;;;;;;106.80;86.55;;;;;;;;;;10196733;28;20056;-72
2022/12/01 04:58:14;;;;;;;110.78;90.60;;;;;;;;;;10184962;28;20060;-72
2022/12/01 05:03:10;;;;;;;115.63;88.07;;;;;;;;;;10185992;28;20062;-72
2022/12/01 05:08:10;;;;;;;106.45;84.85;;;;;;;;;;10189185;28;20081;-72
2022/12/01 05:13:06;;;;;;;117.95;87.00;;;;;;;;;;10188225;28;20061;-72
2022/12/01 05:18:03;;;;;;;109.30;85.70;;;;;;;;;;10190437;28;20045;-72
2022/12/01 05:22:59;;;;;;;109.03;85.28;;;;;;;;;;10194504;28;20042;-72
2022/12/01 05:28:08;;;;;;;105.35;79.95;;;;;;;;;;10183134;28;20078;-72
2022/12/01 05:33:05;;;;;;;99.70;81.05;;;;;;;;;;10186444;28;20416;-73
2022/12/01 05:38:01;;;;;;;104.32;78.93;;;;;;;;;;10186330;28;20049;-73
2022/12/01 05:43:03;;;;;;;113.90;83.47;;;;;;;;;;10174019;28;20046;-74
2022/12/01 05:48:00;;;;;;;101.30;76.68;;;;;;;;;;10183397;28;20680;-73
2022/12/01 05:52:56;;;;;;;103.57;80.07;;;;;;;;;;10182132;28;20042;-73
2022/12/01 05:57:53;;;;;;;105.35;81.45;;;;;;;;;;10177429;28;20049;-73
2022/12/01 06:02:49;;;;;;;109.13;82.00;;;;;;;;;;10173627;28;20054;-74
2022/12/01 06:07:45;;;;;;;106.90;82.20;;;;;;;;;;10189234;28;20077;-72
2022/12/01 06:12:42;;;;;;;101.63;78.55;;;;;;;;;;10173881;28;20587;-72
2022/12/01 06:17:38;;;;;;;103.32;79.68;;;;;;;;;;10172398;28;20705;-71
2022/12/01 06:22:36;;;;;;;107.10;79.82;;;;;;;;;;10182877;28;20453;-72
2022/12/01 06:27:32;;;;;;;102.60;80.03;;;;;;;;;;10190855;28;20509;-72
2022/12/01 06:32:28;;;;;;;110.07;81.95;;;;;;;;;;10183341;28;20057;-71
2022/12/01 06:37:25;;;;;;;106.97;83.93;;;;;;;;;;10190511;28;20445;-71
2022/12/01 06:42:21;;;;;;;109.47;82.50;;;;;;;;;;10194222;28;20060;-71
2022/12/01 06:47:18;;;;;;;103.68;78.10;;;;;;;;;;10204717;28;20053;-72
2022/12/01 06:52:14;;;;;;;106.40;79.40;;;;;;;;;;10177038;28;20433;-72
2022/12/01 06:57:10;;;;;;;106.78;80.80;;;;;;;;;;10189649;28;20049;-72
2022/12/01 07:02:09;;;;;;;108.82;79.00;;;;;;;;;;10206255;28;20099;-72
2022/12/01 07:07:05;;;;;;;105.45;75.38;;;;;;;;;;10197097;28;20042;-72
2022/12/01 07:12:01;;;;;;;113.18;77.57;;;;;;;;;;10202021;28;20041;-72
2022/12/01 07:16:58;;;;;;;104.75;75.75;;;;;;;;;;10178874;28;20140;-71
2022/12/01 07:21:54;;;;;;;106.38;73.28;;;;;;;;;;10199389;28;20136;-71
2022/12/01 07:26:50;;;;;;;103.10;70.80;;;;;;;;;;10194266;28;20063;-71
2022/12/01 07:31:46;;;;;;;105.68;76.25;;;;;;;;;;10190654;28;20153;-71
2022/12/01 07:36:43;;;;;;;101.43;73.45;;;;;;;;;;10179051;28;20042;-71
2022/12/01 07:41:39;;;;;;;103.22;71.53;;;;;;;;;;10208579;28;20071;-71
2022/12/01 07:46:35;;;;;;;100.43;73.75;;;;;;;;;;10183666;28;20551;-71
2022/12/01 07:51:32;;;;;;;107.68;74.20;;;;;;;;;;10171557;28;20070;-71
2022/12/01 07:56:28;;;;;;;94.40;67.28;;;;;;;;;;10165581;28;20042;-71
2022/12/01 08:01:25;;;;;;;104.07;70.07;;;;;;;;;;10172682;28;20046;-71
2022/12/01 08:06:22;;;;;;;94.65;65.03;;;;;;;;;;10177718;28;20150;-71
2022/12/01 08:11:24;;;;;;;90.38;66.72;;;;;;;;;;10168778;28;20568;-71
2022/12/01 08:16:21;;;;;;;88.95;63.03;;;;;;;;;;10174385;28;20080;-71
2022/12/01 08:21:19;;;;;;;90.30;64.55;;;;;;;;;;10202510;28;20050;-71
2022/12/01 08:26:17;;;;;;;86.22;60.80;;;;;;;;;;10201259;28;20041;-71
2022/12/01 08:31:19;;;;;;;90.15;63.78;;;;;;;;;;10189046;28;20049;-72
2022/12/01 08:36:16;;;;;;;87.30;61.40;;;;;;;;;;10197314;28;20539;-71
2022/12/01 08:41:13;;;;;;;88.68;61.38;;;;;;;;;;10210926;28;20045;-71
2022/12/01 08:46:10;;;;;;;81.80;59.88;;;;;;;;;;10194291;28;20042;-72
2022/12/01 08:51:07;;;;;;;86.57;59.97;;;;;;;;;;10187530;28;20068;-71
2022/12/01 08:56:05;;;;;;;89.93;59.88;;;;;;;;;;10198363;28;20047;-71
2022/12/01 09:01:12;;;;;;;78.40;54.50;;;;;;;;;;10192566;28;20053;-71
2022/12/01 09:06:15;;;;;;;78.47;53.42;;;;;;;;;;10187802;28;20120;-71
2022/12/01 09:11:13;;;;;;;79.95;53.25;;;;;;;;;;10169579;28;20126;-72
2022/12/01 09:16:13;;;;;;;81.75;53.28;;;;;;;;;;10179972;28;20046;-71
2022/12/01 09:21:11;;;;;;;81.93;54.45;;;;;;;;;;10179846;28;20046;-70
2022/12/01 09:26:08;;;;;;;79.75;51.60;;;;;;;;;;10183648;28;20057;-71
2022/12/01 09:31:09;;;;;;;78.50;51.92;;;;;;;;;;10170075;28;20050;-71
2022/12/01 09:36:07;;;;;;;79.25;49.58;;;;;;;;;;10184386;28;20046;-71
2022/12/01 09:41:10;;;;;;;82.00;48.65;;;;;;;;;;10199864;28;20041;-71
2022/12/01 09:46:10;;;;;;;80.13;49.60;;;;;;;;;;10187048;28;20058;-71
2022/12/01 09:51:11;;;;;;;80.50;49.58;;;;;;;;;;10207227;28;20524;-71
2022/12/01 09:56:21;;;;;;;83.20;49.17;;;;;;;;;;10203720;28;20409;-72
2022/12/01 10:01:18;;;;;;;84.05;47.10;;;;;;;;;;10185555;28;20176;-71
2022/12/01 10:06:27;;;;;;;82.65;47.63;;;;;;;;;;10162300;28;20042;-71
2022/12/01 10:11:30;;;;;;;90.03;51.05;;;;;;;;;;10181889;28;20052;-72
2022/12/01 10:16:32;;;;;;;87.22;51.33;;;;;;;;;;10164478;28;20069;-71
2022/12/01 10:21:47;;;;;;;77.78;48.50;;;;;;;;;;10170339;28;20076;-71
2022/12/01 10:26:50;;;;;;;83.60;50.85;;;;;;;;;;10175846;28;20041;-71
2022/12/01 10:32:05;;;;;;;82.85;48.30;;;;;;;;;;10175036;28;20149;-71
2022/12/01 10:37:01;;;;;;;77.20;46.35;;;;;;;;;;10186654;28;20042;-71
2022/12/01 10:42:21;;;;;;;70.35;42.97;;;;;;;;;;10207763;28;20046;-71
2022/12/01 10:47:19;;;;;;;63.78;40.28;;;;;;;;;;10184047;28;20055;-72
2022/12/01 10:52:24;;;;;;;63.03;41.33;;;;;;;;;;10202673;28;20137;-71
2022/12/01 10:57:21;;;;;;;58.63;38.05;;;;;;;;;;10197037;28;20124;-71
2022/12/01 11:02:22;;;;;;;61.58;40.10;;;;;;;;;;10206110;28;20046;-71
2022/12/01 11:07:23;;;;;;;56.08;36.08;;;;;;;;;;10176492;28;20125;-72
2022/12/01 11:12:19;;;;;;;51.75;35.63;;;;;;;;;;10167733;28;20069;-71
2022/12/01 11:17:24;;;;;;;58.33;38.47;;;;;;;;;;10169970;28;20080;-71
2022/12/01 11:22:30;;;;;;;65.18;40.22;;;;;;;;;;10171890;28;20046;-71
2022/12/01 11:27:31;;;;;;;69.20;40.40;;;;;;;;;;10166857;28;20046;-72
2022/12/01 11:32:38;;;;;;;63.42;40.65;;;;;;;;;;10181589;28;20049;-72
2022/12/01 11:37:35;;;;;;;64.25;42.03;;;;;;;;;;10186649;28;20073;-71
2022/12/01 11:42:33;;;;;;;73.82;43.20;;;;;;;;;;10181459;28;20479;-71
2022/12/01 11:47:29;;;;;;;69.82;43.28;;;;;;;;;;10179937;28;20061;-72
2022/12/01 11:52:30;;;;;;;70.07;43.35;;;;;;;;;;10177317;28;20069;-71
2022/12/01 11:57:27;;;;;;;70.15;40.20;;;;;;;;;;10171534;28;20042;-71
2022/12/01 12:02:37;;;;;;;61.03;40.00;;;;;;;;;;10180967;28;20046;-71
2022/12/01 12:07:43;;;;;;;62.72;37.38;;;;;;;;;;10180467;28;20069;-71
2022/12/01 12:12:39;;;;;;;54.30;34.75;;;;;;;;;;10177849;28;20127;-71
2022/12/01 12:17:54;;;;;;;57.17;37.70;;;;;;;;;;10193957;28;20061;-71
2022/12/01 12:22:53;;;;;;;57.58;38.22;;;;;;;;;;10198666;28;20136;-71
2022/12/01 12:28:10;;;;;;;60.08;39.38;;;;;;;;;;10201607;28;20136;-71
2022/12/01 12:33:21;;;;;;;61.97;39.30;;;;;;;;;;10203645;28;20148;-72
2022/12/01 12:38:30;;;;;;;54.92;34.90;;;;;;;;;;10169791;28;20137;-71
2022/12/01 12:43:26;;;;;;;67.22;41.17;;;;;;;;;;10172568;28;20449;-72
2022/12/01 12:48:27;;;;;;;62.97;38.92;;;;;;;;;;10175091;28;20042;-71
2022/12/01 12:53:26;;;;;;;62.13;38.35;;;;;;;;;;10168920;28;20129;-72
2022/12/01 12:58:25;;;;;;;60.30;38.78;;;;;;;;;;10179273;28;20050;-70
2022/12/01 13:03:40;;;;;;;60.65;37.05;;;;;;;;;;10175371;28;20056;-71
2022/12/01 13:08:51;;;;;;;69.38;39.10;;;;;;;;;;10176238;28;20160;-71
2022/12/01 13:13:47;;;;;;;60.80;40.35;;;;;;;;;;10196259;28;20141;-71
2022/12/01 13:18:46;;;;;;;66.28;40.92;;;;;;;;;;10205715;28;20053;-71
2022/12/01 13:23:44;;;;;;;63.50;38.63;;;;;;;;;;10186480;28;20065;-71
2022/12/01 13:28:42;;;;;;;60.28;41.00;;;;;;;;;;10182977;28;20049;-71
2022/12/01 13:33:45;;;;;;;60.85;38.28;;;;;;;;;;10171691;28;20133;-71
2022/12/01 13:38:41;;;;;;;52.05;38.45;;;;;;;;;;10178218;28;20417;-71
2022/12/01 13:43:46;;;;;;;52.15;39.35;;;;;;;;;;10177159;28;20514;-71
2022/12/01 13:48:53;;;;;;;53.38;41.40;;;;;;;;;;10183920;28;20490;-71
2022/12/01 13:53:55;;;;;;;57.42;40.78;;;;;;;;;;10196832;28;20045;-71
2022/12/01 13:58:53;;;;;;;58.38;43.17;;;;;;;;;;10205006;28;20073;-71
2022/12/01 14:03:53;;;;;;;55.95;40.25;;;;;;;;;;10189200;28;20034;-71
2022/12/01 14:08:56;;;;;;;57.03;41.55;;;;;;;;;;10196973;28;20050;-71
2022/12/01 14:14:08;;;;;;;55.65;38.58;;;;;;;;;;10199121;28;20532;-72
2022/12/01 14:19:04;;;;;;;47.90;36.63;;;;;;;;;;10190976;28;20053;-71
2022/12/01 14:24:03;;;;;;;49.28;36.90;;;;;;;;;;10184753;28;20109;-71
2022/12/01 14:28:59;;;;;;;55.50;35.45;;;;;;;;;;10182789;28;20038;-71
2022/12/01 14:34:07;;;;;;;52.35;34.42;;;;;;;;;;10186696;28;20513;-71
2022/12/01 14:39:13;;;;;;;48.28;35.95;;;;;;;;;;10186100;28;20061;-71
2022/12/01 14:44:18;;;;;;;44.20;33.08;;;;;;;;;;10179296;28;20418;-71
2022/12/01 14:49:21;;;;;;;46.97;34.05;;;;;;;;;;10169058;28;20915;-71
2022/12/01 14:54:24;;;;;;;47.85;34.28;;;;;;;;;;10188778;28;20735;-71
2022/12/01 14:59:21;;;;;;;41.05;32.83;;;;;;;;;;10187460;28;20519;-72
2022/12/01 15:04:18;;;;;;;48.92;32.03;;;;;;;;;;10197060;28;20046;-71
2022/12/01 15:09:15;;;;;;;53.42;33.40;;;;;;;;;;10181508;28;20125;-71
2022/12/01 15:14:37;;;;;;;44.20;33.70;;;;;;;;;;10185976;28;20042;-71
2022/12/01 15:19:33;;;;;;;45.85;35.05;;;;;;;;;;10194972;28;20042;-72
2022/12/01 15:24:30;;;;;;;46.17;35.40;;;;;;;;;;10185154;28;20042;-72
2022/12/01 15:29:30;;;;;;;49.60;34.47;;;;;;;;;;10188637;28;20056;-72
2022/12/01 15:34:26;;;;;;;46.35;33.97;;;;;;;;;;10181373;28;20150;-72
2022/12/01 15:39:28;;;;;;;49.85;34.08;;;;;;;;;;10201025;28;20157;-72
2022/12/01 15:44:27;;;;;;;47.23;33.50;;;;;;;;;;10196997;28;20391;-72
2022/12/01 15:49:28;;;;;;;42.60;31.85;;;;;;;;;;10188234;28;20038;-73
2022/12/01 15:54:25;;;;;;;40.28;31.67;;;;;;;;;;10190535;28;20525;-72
2022/12/01 15:59:27;;;;;;;46.75;33.17;;;;;;;;;;10200302;28;20141;-72
2022/12/01 16:04:28;;;;;;;40.30;32.88;;;;;;;;;;10201951;28;20690;-72
2022/12/01 16:09:26;;;;;;;47.63;34.03;;;;;;;;;;10191358;28;20052;-72
2022/12/01 16:14:24;;;;;;;50.22;34.63;;;;;;;;;;10189362;28;20132;-72
2022/12/01 16:19:22;;;;;;;49.67;34.83;;;;;;;;;;10204144;28;20042;-72
2022/12/01 16:24:22;;;;;;;57.25;36.17;;;;;;;;;;10209930;28;20037;-72
2022/12/01 16:29:19;;;;;;;56.30;35.42;;;;;;;;;;10194199;28;20042;-72
2022/12/01 16:34:17;;;;;;;67.32;39.65;;;;;;;;;;10207070;28;20834;-72
2022/12/01 16:39:33;;;;;;;55.63;36.97;;;;;;;;;;10201869;28;20577;-72
2022/12/01 16:44:29;;;;;;;73.55;41.10;;;;;;;;;;10200110;28;20148;-72
2022/12/01 16:49:25;;;;;;;80.53;40.50;;;;;;;;;;10205667;28;20080;-72
2022/12/01 16:54:22;;;;;;;80.65;44.42;;;;;;;;;;10208324;28;20398;-72
2022/12/01 16:59:18;;;;;;;79.13;46.00;;;;;;;;;;10198406;28;20069;-72
2022/12/01 17:04:15;;;;;;;83.25;45.42;;;;;;;;;;10180924;28;20445;-72
2022/12/01 17:09:11;;;;;;;78.90;45.30;;;;;;;;;;10179208;28;20061;-72
2022/12/01 17:14:08;;;;;;;87.85;48.70;;;;;;;;;;10189201;28;20079;-72
2022/12/01 17:19:04;;;;;;;88.43;48.45;;;;;;;;;;10184045;28;20077;-73
2022/12/01 17:24:00;;;;;;;84.63;47.35;;;;;;;;;;10178448;28;20042;-73
2022/12/01 17:28:56;;;;;;;73.70;48.28;;;;;;;;;;10185766;28;20052;-72
2022/12/01 17:33:53;;;;;;;81.50;45.83;;;;;;;;;;10193147;28;20053;-73
2022/12/01 17:38:49;;;;;;;78.18;44.85;;;;;;;;;;10189390;28;20056;-73
2022/12/01 17:43:46;;;;;;;80.65;45.95;;;;;;;;;;10181842;28;20046;-73
2022/12/01 17:48:44;;;;;;;74.63;44.45;;;;;;;;;;10181112;28;20457;-73
2022/12/01 17:53:41;;;;;;;79.97;45.35;;;;;;;;;;10182816;28;20295;-73
2022/12/01 17:58:37;;;;;;;68.47;43.20;;;;;;;;;;10185442;28;20418;-73
2022/12/01 18:03:34;;;;;;;78.45;42.53;;;;;;;;;;10176935;28;20044;-73
2022/12/01 18:08:30;;;;;;;70.72;42.80;;;;;;;;;;10179060;28;20077;-73
2022/12/01 18:13:26;;;;;;;69.40;41.13;;;;;;;;;;10181766;28;20405;-72
2022/12/01 18:18:23;;;;;;;65.85;42.03;;;;;;;;;;10182673;28;20046;-73
2022/12/01 18:23:19;;;;;;;69.13;42.00;;;;;;;;;;10169931;28;20109;-73
2022/12/01 18:28:15;;;;;;;62.70;41.55;;;;;;;;;;10163868;28;20053;-72
2022/12/01 18:33:12;;;;;;;63.55;38.35;;;;;;;;;;10172185;28;20136;-73
2022/12/01 18:38:08;;;;;;;66.68;39.20;;;;;;;;;;10181723;28;20079;-73
2022/12/01 18:43:04;;;;;;;62.63;39.05;;;;;;;;;;10182137;28;20125;-72
2022/12/01 18:48:03;;;;;;;59.97;37.92;;;;;;;;;;10181973;28;20045;-72
2022/12/01 18:52:59;;;;;;;56.80;36.58;;;;;;;;;;10182599;28;20553;-72
2022/12/01 18:57:55;;;;;;;60.60;40.15;;;;;;;;;;10180655;28;20046;-72
2022/12/01 19:02:51;;;;;;;59.33;36.85;;;;;;;;;;10183014;28;20044;-72
2022/12/01 19:07:48;;;;;;;56.53;35.95;;;;;;;;;;10194718;28;20085;-73
2022/12/01 19:12:44;;;;;;;53.75;36.35;;;;;;;;;;10170818;28;20201;-72
2022/12/01 19:17:41;;;;;;;54.88;35.33;;;;;;;;;;10190393;28;20046;-72
2022/12/01 19:22:37;;;;;;;54.63;35.00;;;;;;;;;;10193031;28;20062;-72
2022/12/01 19:27:33;;;;;;;59.78;36.35;;;;;;;;;;10171951;28;20033;-73
2022/12/01 19:32:30;;;;;;;60.80;36.30;;;;;;;;;;10180494;28;20069;-72
2022/12/01 19:37:26;;;;;;;60.63;36.25;;;;;;;;;;10182099;28;20038;-73
2022/12/01 19:42:23;;;;;;;63.25;37.35;;;;;;;;;;10198077;28;20153;-72
2022/12/01 19:47:19;;;;;;;59.30;36.38;;;;;;;;;;10182029;28;20122;-73
2022/12/01 19:52:17;;;;;;;54.45;33.28;;;;;;;;;;10187452;28;20062;-73
2022/12/01 19:57:14;;;;;;;55.08;35.35;;;;;;;;;;10176098;28;20416;-73
2022/12/01 20:02:10;;;;;;;62.60;38.38;;;;;;;;;;10188969;28;20037;-73
2022/12/01 20:07:06;;;;;;;52.85;36.10;;;;;;;;;;10191058;28;20509;-73
2022/12/01 20:12:03;;;;;;;63.33;36.65;;;;;;;;;;10195365;28;20125;-73
2022/12/01 20:16:59;;;;;;;59.63;38.30;;;;;;;;;;10193295;28;20049;-73
2022/12/01 20:21:55;;;;;;;63.72;36.20;;;;;;;;;;10189087;28;20134;-73
2022/12/01 20:26:52;;;;;;;60.97;37.72;;;;;;;;;;10200721;28;20038;-73
2022/12/01 20:31:50;;;;;;;58.20;36.28;;;;;;;;;;10197068;28;20058;-73
2022/12/01 20:36:46;;;;;;;67.38;39.13;;;;;;;;;;10185917;28;20561;-73
2022/12/01 20:41:43;;;;;;;64.78;37.92;;;;;;;;;;10185625;28;20137;-72
2022/12/01 20:46:44;;;;;;;81.00;41.88;;;;;;;;;;10195100;28;20506;-72
2022/12/01 20:51:40;;;;;;;74.53;40.35;;;;;;;;;;10185739;28;20134;-73
2022/12/01 20:56:36;;;;;;;76.40;43.35;;;;;;;;;;10175156;28;20042;-73
2022/12/01 21:01:32;;;;;;;66.65;42.35;;;;;;;;;;10188620;28;20488;-73
2022/12/01 21:06:29;;;;;;;68.90;41.20;;;;;;;;;;10190200;28;20502;-74
2022/12/01 21:17:02;;;;;;;62.97;39.67;;;;;;;;;;10097011;28;20063;-72
2022/12/01 21:21:58;;;;;;;62.03;38.60;;;;;;;;;;10208240;28;20487;-72
2022/12/01 21:27:00;;;;;;;65.57;37.63;;;;;;;;;;10187288;28;20132;-72
2022/12/01 21:32:01;;;;;;;59.60;37.72;;;;;;;;;;10182749;28;20121;-72
2022/12/01 21:37:00;;;;;;;64.00;37.10;;;;;;;;;;10172520;28;20048;-72
2022/12/01 21:41:58;;;;;;;64.93;37.47;;;;;;;;;;10176576;28;20044;-72
2022/12/01 21:46:56;;;;;;;64.38;38.97;;;;;;;;;;10175067;28;20038;-72
2022/12/01 21:51:54;;;;;;;61.63;37.75;;;;;;;;;;10193497;28;20128;-74
2022/12/01 21:56:54;;;;;;;74.18;38.55;;;;;;;;;;10182727;28;20050;-72
2022/12/01 22:01:53;;;;;;;62.65;40.08;;;;;;;;;;10202705;28;20054;-74
2022/12/01 22:06:51;;;;;;;67.38;38.22;;;;;;;;;;10188502;28;20045;-75
2022/12/01 22:11:55;;;;;;;67.60;41.08;;;;;;;;;;10187310;28;20059;-75
2022/12/01 22:16:59;;;;;;;66.75;36.55;;;;;;;;;;10185809;28;20141;-75
2022/12/01 22:22:02;;;;;;;62.20;36.47;;;;;;;;;;10190939;28;20520;-75
2022/12/01 22:27:04;;;;;;;62.50;36.92;;;;;;;;;;10189334;28;20128;-75
2022/12/01 22:32:10;;;;;;;54.45;32.83;;;;;;;;;;10191661;28;20129;-74
2022/12/01 22:37:26;;;;;;;61.30;33.97;;;;;;;;;;10178518;28;20417;-74
2022/12/01 22:42:30;;;;;;;63.55;33.55;;;;;;;;;;10172390;28;20042;-70
2022/12/01 22:47:28;;;;;;;57.38;32.15;;;;;;;;;;10174875;28;20039;-73
2022/12/01 22:52:27;;;;;;;60.80;32.58;;;;;;;;;;10184965;28;20686;-73
2022/12/01 22:57:33;;;;;;;64.90;34.05;;;;;;;;;;10182916;28;20085;-73
2022/12/01 23:02:33;;;;;;;60.63;32.92;;;;;;;;;;10188431;28;20421;-73
2022/12/01 23:07:31;;;;;;;63.78;33.72;;;;;;;;;;10186916;28;20050;-73
2022/12/01 23:12:29;;;;;;;68.00;35.85;;;;;;;;;;10180087;28;20045;-69
2022/12/01 23:17:29;;;;;;;61.58;34.45;;;;;;;;;;10177595;28;20624;-69
2022/12/01 23:22:25;;;;;;;56.55;30.85;;;;;;;;;;10198579;28;20048;-69
2022/12/01 23:27:22;;;;;;;57.08;33.50;;;;;;;;;;10198034;28;20041;-70
2022/12/01 23:32:18;;;;;;;55.00;30.88;;;;;;;;;;10188893;28;20053;-69
2022/12/01 23:37:25;;;;;;;60.15;33.47;;;;;;;;;;10193433;28;20053;-69
2022/12/01 23:42:21;;;;;;;65.95;33.80;;;;;;;;;;10198657;28;20129;-69
2022/12/01 23:47:23;;;;;;;61.13;34.80;;;;;;;;;;10192296;28;20034;-69
2022/12/01 23:52:19;;;;;;;61.25;33.67;;;;;;;;;;10199146;28;20049;-69
2022/12/01 23:57:20;;;;;;;60.33;32.15;;;;;;;;;;10188332;28;20501;-69
